createdAt,value
2023-06-20T00:02:29.300Z,84.96
2023-06-20T00:05:07.460Z,85.46
2023-06-20T00:07:37.258Z,85.90
2023-06-20T00:10:07.069Z,85.88
2023-06-20T00:12:36.470Z,85.84
2023-06-20T00:15:10.486Z,85.92
2023-06-20T00:17:45.438Z,86.17
2023-06-20T00:20:15.446Z,86.26
2023-06-20T00:22:44.945Z,86.97
2023-06-20T00:25:14.552Z,87.04
2023-06-20T00:27:43.250Z,87.28
2023-06-20T00:30:13.249Z,87.60
2023-06-20T00:32:42.073Z,87.74
2023-06-20T00:35:11.147Z,87.72
2023-06-20T00:37:40.327Z,88.17
2023-06-20T00:40:09.615Z,88.50
2023-06-20T00:42:38.519Z,89.14
2023-06-20T00:45:29.611Z,89.32
2023-06-20T00:47:59.884Z,89.38
2023-06-20T00:50:35.244Z,89.15
2023-06-20T00:53:08.407Z,89.53
2023-06-20T00:55:45.979Z,89.51
2023-06-20T00:58:18.460Z,89.46
2023-06-20T01:00:51.504Z,89.68
2023-06-20T01:03:25.760Z,89.73
2023-06-20T01:06:16.964Z,89.97
2023-06-20T01:09:27.721Z,89.69
2023-06-20T01:12:29.109Z,89.84
2023-06-20T01:15:15.323Z,90.12
2023-06-20T01:17:56.960Z,90.58
2023-06-20T01:20:34.145Z,90.76
2023-06-20T01:23:11.665Z,91.31
2023-06-20T01:26:06.268Z,91.42
2023-06-20T01:28:40.149Z,91.14
2023-06-20T01:31:12.762Z,91.08
2023-06-20T01:34:09.513Z,89.39
2023-06-20T01:36:43.815Z,89.23
2023-06-20T01:39:24.368Z,89.36
2023-06-20T01:41:53.588Z,89.23
2023-06-20T01:44:22.976Z,89.28
2023-06-20T01:46:52.185Z,89.29
2023-06-20T01:49:21.242Z,88.91
2023-06-20T01:51:57.242Z,89.40
2023-06-20T01:54:28.962Z,90.10
2023-06-20T01:57:01.032Z,89.70
2023-06-20T01:59:30.375Z,89.32
2023-06-20T02:02:00.969Z,89.55
2023-06-20T02:04:30.557Z,90.06
2023-06-20T02:07:00.080Z,90.75
2023-06-20T02:09:29.978Z,90.92
2023-06-20T02:11:59.792Z,91.34
2023-06-20T02:14:28.718Z,91.04
2023-06-20T02:16:58.698Z,90.99
2023-06-20T02:19:28.127Z,91.39
2023-06-20T02:21:58.643Z,91.48
2023-06-20T02:24:29.194Z,91.14
2023-06-20T02:26:59.595Z,91.88
2023-06-20T02:29:33.596Z,92.08
2023-06-20T02:32:04.487Z,90.27
2023-06-20T02:34:35.206Z,91.79
2023-06-20T02:37:06.141Z,92.43
2023-06-20T02:39:35.110Z,92.62
2023-06-20T02:42:06.046Z,93.52
2023-06-20T02:44:34.630Z,94.09
2023-06-20T02:47:15.498Z,94.43
2023-06-20T02:50:03.357Z,94.55
2023-06-20T02:52:55.842Z,93.47
2023-06-20T02:55:56.634Z,93.55
2023-06-20T02:58:29.489Z,94.29
2023-06-20T03:01:05.149Z,94.68
2023-06-20T03:03:41.677Z,94.88
2023-06-20T03:06:16.989Z,95.35
2023-06-20T03:08:52.359Z,95.87
2023-06-20T03:11:27.244Z,96.42
2023-06-20T03:14:06.670Z,96.57
2023-06-20T03:16:39.776Z,96.81
2023-06-20T03:19:16.126Z,97.14
2023-06-20T03:21:46.351Z,97.30
2023-06-20T03:24:15.684Z,97.43
2023-06-20T03:26:44.520Z,97.20
2023-06-20T03:29:13.329Z,97.36
2023-06-20T03:31:42.684Z,97.63
2023-06-20T03:34:11.750Z,97.50
2023-06-20T03:36:41.146Z,97.54
2023-06-20T03:39:10.335Z,97.29
2023-06-20T03:41:39.141Z,96.91
2023-06-20T03:44:07.685Z,96.55
2023-06-20T03:46:36.624Z,96.21
2023-06-20T03:49:06.124Z,95.66
2023-06-20T03:51:36.197Z,94.86
2023-06-20T03:54:07.039Z,94.18
2023-06-20T03:56:36.038Z,93.85
2023-06-20T03:59:05.350Z,93.68
2023-06-20T04:01:34.201Z,93.54
2023-06-20T04:04:05.699Z,93.45
2023-06-20T04:06:35.215Z,93.21
2023-06-20T04:09:06.031Z,93.40
2023-06-20T04:11:35.136Z,93.36
2023-06-20T04:14:06.978Z,93.24
2023-06-20T04:16:43.093Z,93.17
2023-06-20T04:19:18.680Z,92.70
2023-06-20T04:21:53.413Z,92.72
2023-06-20T04:24:26.059Z,92.16
2023-06-20T04:27:00.711Z,91.96
2023-06-20T04:29:33.404Z,91.36
2023-06-20T04:32:09.551Z,90.97
2023-06-20T04:34:43.916Z,90.46
2023-06-20T04:37:17.956Z,89.80
2023-06-20T04:39:49.463Z,89.46
2023-06-20T04:42:24.101Z,88.96
2023-06-20T04:44:54.500Z,87.93
2023-06-20T04:47:23.849Z,87.55
2023-06-20T04:49:52.793Z,86.65
2023-06-20T04:52:25.275Z,86.03
2023-06-20T04:55:09.947Z,85.13
2023-06-20T04:57:43.569Z,84.67
2023-06-20T05:00:17.690Z,84.02
2023-06-20T05:02:50.163Z,83.24
2023-06-20T05:05:22.925Z,82.35
2023-06-20T05:07:55.086Z,81.76
2023-06-20T05:10:35.219Z,81.26
2023-06-20T05:13:09.928Z,80.49
2023-06-20T05:15:42.274Z,79.93
2023-06-20T05:18:20.814Z,79.57
2023-06-20T05:20:59.872Z,79.02
2023-06-20T05:23:32.678Z,78.74
2023-06-20T05:26:03.570Z,78.34
2023-06-20T05:28:34.097Z,77.67
2023-06-20T05:31:05.611Z,76.65
2023-06-20T05:33:34.679Z,76.05
2023-06-20T05:36:04.262Z,75.72
2023-06-20T05:38:33.244Z,75.48
2023-06-20T05:41:02.878Z,74.94
2023-06-20T05:43:32.675Z,75.21
2023-06-20T05:46:01.462Z,75.02
2023-06-20T05:48:31.802Z,74.70
2023-06-20T05:51:01.671Z,74.38
2023-06-20T05:53:31.106Z,74.60
2023-06-20T05:56:00.195Z,74.14
2023-06-20T05:58:30.324Z,73.89
2023-06-20T06:01:00.695Z,73.89
2023-06-20T06:03:31.986Z,73.88
2023-06-20T06:06:02.376Z,73.32
2023-06-20T06:08:31.203Z,72.84
2023-06-20T06:11:00.284Z,72.29
2023-06-20T06:13:30.621Z,71.45
2023-06-20T06:16:01.188Z,70.52
2023-06-20T06:18:32.253Z,70.19
2023-06-20T06:21:01.487Z,69.69
2023-06-20T06:23:31.208Z,68.98
2023-06-20T06:26:00.408Z,68.58
2023-06-20T06:28:32.366Z,67.99
2023-06-20T06:31:02.950Z,67.30
2023-06-20T06:33:33.068Z,67.02
2023-06-20T06:36:02.117Z,66.15
2023-06-20T06:38:34.177Z,65.61
2023-06-20T06:41:04.296Z,65.30
2023-06-20T06:43:33.198Z,64.78
2023-06-20T06:46:02.657Z,63.77
2023-06-20T06:48:32.092Z,63.07
2023-06-20T06:51:01.839Z,62.10
2023-06-20T06:53:31.017Z,61.65
2023-06-20T06:56:00.091Z,61.19
2023-06-20T06:58:28.895Z,60.96
2023-06-20T07:00:58.506Z,60.14
2023-06-20T07:03:27.823Z,59.97
2023-06-20T07:05:57.294Z,59.67
2023-06-20T07:08:26.096Z,59.11
2023-06-20T07:10:56.204Z,59.15
2023-06-20T07:13:25.724Z,58.57
2023-06-20T07:15:55.272Z,58.75
2023-06-20T07:18:25.074Z,58.89
2023-06-20T07:20:54.525Z,59.05
2023-06-20T07:23:23.848Z,58.55
2023-06-20T07:25:53.555Z,57.97
2023-06-20T07:28:22.746Z,57.47
2023-06-20T07:30:51.620Z,57.22
2023-06-20T07:33:20.628Z,56.60
2023-06-20T07:35:49.957Z,55.64
2023-06-20T07:38:20.114Z,55.62
2023-06-20T07:40:49.363Z,54.93
2023-06-20T07:43:20.969Z,54.33
2023-06-20T07:45:50.000Z,54.29
2023-06-20T07:48:19.084Z,54.43
2023-06-20T07:50:47.757Z,54.50
2023-06-20T07:53:16.736Z,53.86
2023-06-20T07:55:45.552Z,53.48
2023-06-20T07:58:14.649Z,52.97
2023-06-20T08:00:44.931Z,53.67
2023-06-20T08:03:14.348Z,54.51
2023-06-20T08:05:43.580Z,54.16
2023-06-20T08:08:12.772Z,54.06
2023-06-20T08:10:41.863Z,53.53
2023-06-20T08:13:12.309Z,53.45
2023-06-20T08:15:41.320Z,53.60
2023-06-20T08:18:10.429Z,53.59
2023-06-20T08:20:39.492Z,52.55
2023-06-20T08:23:08.728Z,52.78
2023-06-20T08:25:38.182Z,52.97
2023-06-20T08:28:14.708Z,52.71
2023-06-20T08:30:44.763Z,51.68
2023-06-20T08:33:13.923Z,50.20
2023-06-20T08:35:42.967Z,51.09
2023-06-20T08:38:12.248Z,51.30
2023-06-20T08:40:41.242Z,49.61
2023-06-20T08:43:16.787Z,47.87
2023-06-20T08:45:46.415Z,47.19
2023-06-20T08:48:16.040Z,46.60
2023-06-20T08:50:48.932Z,46.08
2023-06-20T08:53:22.707Z,46.69
2023-06-20T08:55:54.268Z,46.70
2023-06-20T08:58:23.968Z,47.02
2023-06-20T09:00:53.160Z,46.93
2023-06-20T09:03:22.363Z,46.90
2023-06-20T09:05:51.971Z,46.13
2023-06-20T09:08:21.705Z,45.75
2023-06-20T09:11:06.842Z,46.44
2023-06-20T09:13:36.402Z,47.05
2023-06-20T09:16:12.900Z,47.37
2023-06-20T09:18:42.647Z,45.40
2023-06-20T09:21:18.078Z,44.79
2023-06-20T09:23:47.487Z,44.29
2023-06-20T09:26:19.570Z,43.88
2023-06-20T09:28:48.644Z,43.50
2023-06-20T09:31:19.065Z,43.55
2023-06-20T09:33:48.353Z,43.75
2023-06-20T09:36:22.777Z,43.26
2023-06-20T09:38:57.801Z,43.18
2023-06-20T09:41:26.912Z,43.00
2023-06-20T09:43:56.366Z,43.43
2023-06-20T09:46:25.379Z,43.55
2023-06-20T09:48:55.723Z,43.36
2023-06-20T09:51:26.164Z,43.42
2023-06-20T09:54:25.148Z,43.74
2023-06-20T09:56:59.493Z,43.87
2023-06-20T09:59:29.739Z,43.83
2023-06-20T10:02:00.570Z,44.26
2023-06-20T10:04:31.046Z,44.60
2023-06-20T10:07:00.769Z,44.41
2023-06-20T10:09:30.088Z,43.93
2023-06-20T10:11:59.073Z,43.94
2023-06-20T10:14:27.947Z,44.13
2023-06-20T10:16:56.642Z,44.46
2023-06-20T10:19:25.634Z,43.86
2023-06-20T10:22:01.647Z,44.35
2023-06-20T10:24:32.004Z,44.16
2023-06-20T10:27:02.043Z,44.28
2023-06-20T10:29:31.260Z,44.01
2023-06-20T10:32:07.819Z,43.69
2023-06-20T10:34:42.886Z,43.78
2023-06-20T10:37:19.127Z,43.35
2023-06-20T10:39:58.565Z,43.24
2023-06-20T10:42:36.547Z,43.52
2023-06-20T10:45:22.841Z,43.75
2023-06-20T10:47:52.508Z,43.51
2023-06-20T10:50:22.798Z,43.07
2023-06-20T10:52:51.889Z,42.80
2023-06-20T10:55:25.691Z,42.66
2023-06-20T10:57:55.800Z,42.29
2023-06-20T11:00:25.821Z,42.91
2023-06-20T11:02:57.088Z,42.92
2023-06-20T11:05:31.017Z,42.85
2023-06-20T11:08:09.180Z,42.65
2023-06-20T11:10:40.947Z,42.89
2023-06-20T11:13:10.049Z,43.10
2023-06-20T11:15:39.527Z,43.18
2023-06-20T11:18:11.046Z,43.00
2023-06-20T11:20:42.042Z,42.58
2023-06-20T11:23:12.669Z,42.65
2023-06-20T11:25:46.059Z,42.33
2023-06-20T11:28:16.292Z,41.56
2023-06-20T11:30:47.789Z,41.14
2023-06-20T11:33:18.107Z,41.40
2023-06-20T11:35:54.528Z,41.92
2023-06-20T11:38:27.272Z,41.84
2023-06-20T11:41:05.908Z,41.40
2023-06-20T11:43:42.486Z,41.09
2023-06-20T11:46:14.048Z,40.89
2023-06-20T11:48:58.403Z,40.77
2023-06-20T11:51:28.301Z,40.72
2023-06-20T11:54:09.107Z,41.04
2023-06-20T11:56:38.082Z,41.38
2023-06-20T11:59:07.173Z,40.87
2023-06-20T12:01:37.113Z,39.81
2023-06-20T12:04:08.279Z,39.29
2023-06-20T12:06:39.062Z,38.66
2023-06-20T12:09:17.926Z,38.29
2023-06-20T12:11:51.109Z,37.81
2023-06-20T12:14:20.617Z,37.87
2023-06-20T12:16:50.755Z,37.76
2023-06-20T12:19:24.000Z,38.19
2023-06-20T12:21:53.001Z,38.57
2023-06-20T12:24:24.910Z,38.86
2023-06-20T12:26:55.402Z,38.91
2023-06-20T12:29:24.253Z,39.50
2023-06-20T12:31:53.815Z,39.71
2023-06-20T12:34:25.225Z,39.49
2023-06-20T12:36:54.319Z,39.36
2023-06-20T12:39:23.356Z,39.39
2023-06-20T12:41:52.410Z,39.68
2023-06-20T12:44:21.834Z,39.70
2023-06-20T12:46:51.314Z,40.07
2023-06-20T12:49:21.657Z,40.12
2023-06-20T12:51:50.835Z,40.23
2023-06-20T12:54:19.717Z,40.33
2023-06-20T12:56:48.520Z,40.51
2023-06-20T12:59:19.841Z,40.74
2023-06-20T13:01:49.614Z,40.68
2023-06-20T13:04:19.168Z,40.74
2023-06-20T13:06:48.680Z,40.74
2023-06-20T13:09:17.876Z,40.66
2023-06-20T13:11:47.912Z,40.52
2023-06-20T13:14:18.593Z,40.17
2023-06-20T13:16:51.114Z,39.73
2023-06-20T13:19:22.722Z,39.33
2023-06-20T13:21:52.260Z,39.41
2023-06-20T13:24:21.684Z,39.14
2023-06-20T13:26:51.486Z,38.91
2023-06-20T13:29:20.488Z,38.61
2023-06-20T13:31:50.286Z,38.47
2023-06-20T13:34:20.408Z,38.26
2023-06-20T13:36:49.495Z,38.52
2023-06-20T13:39:18.700Z,38.70
2023-06-20T13:41:47.887Z,38.59
2023-06-20T13:44:16.883Z,38.08
2023-06-20T13:46:46.289Z,38.24
2023-06-20T13:49:15.506Z,37.91
2023-06-20T13:51:44.803Z,37.83
2023-06-20T13:54:14.069Z,37.86
2023-06-20T13:56:42.870Z,37.89
2023-06-20T13:59:11.882Z,38.03
2023-06-20T14:01:42.704Z,37.99
2023-06-20T14:04:12.081Z,38.09
2023-06-20T14:06:41.951Z,36.89
2023-06-20T14:09:11.350Z,37.08
2023-06-20T14:11:40.614Z,37.15
2023-06-20T14:14:10.769Z,37.17
2023-06-20T14:16:39.872Z,37.13
2023-06-20T14:19:09.150Z,36.72
2023-06-20T14:21:38.437Z,36.76
2023-06-20T14:24:07.448Z,36.90
2023-06-20T14:26:36.428Z,36.60
2023-06-20T14:29:05.230Z,36.42
2023-06-20T14:31:34.370Z,37.00
2023-06-20T14:34:03.614Z,36.25
2023-06-20T14:36:36.712Z,36.32
2023-06-20T14:39:06.333Z,36.30
2023-06-20T14:41:35.307Z,36.51
2023-06-20T14:44:05.428Z,36.61
2023-06-20T14:46:34.648Z,36.39
2023-06-20T14:49:03.726Z,36.52
2023-06-20T14:51:32.631Z,36.35
2023-06-20T14:54:01.410Z,36.68
2023-06-20T14:56:30.509Z,36.61
2023-06-20T14:58:59.493Z,36.90
2023-06-20T15:01:28.834Z,36.81
2023-06-20T15:03:58.475Z,37.34
2023-06-20T15:06:27.819Z,37.40
2023-06-20T15:08:57.193Z,37.07
2023-06-20T15:11:25.986Z,36.87
2023-06-20T15:13:55.003Z,36.89
2023-06-20T15:16:24.053Z,36.99
2023-06-20T15:18:52.757Z,37.96
2023-06-20T15:21:22.369Z,38.37
2023-06-20T15:23:51.365Z,38.98
2023-06-20T15:26:20.171Z,39.27
2023-06-20T15:28:49.354Z,39.35
2023-06-20T15:31:19.199Z,39.98
2023-06-20T15:33:48.865Z,40.33
2023-06-20T15:36:17.889Z,41.01
2023-06-20T15:38:47.115Z,42.07
2023-06-20T15:41:17.188Z,42.67
2023-06-20T15:43:46.489Z,43.72
2023-06-20T15:46:15.913Z,43.95
2023-06-20T15:49:01.281Z,43.94
2023-06-20T15:51:31.067Z,44.50
2023-06-20T15:54:00.279Z,44.73
2023-06-20T15:56:29.814Z,45.02
2023-06-20T15:58:59.323Z,45.50
2023-06-20T16:01:29.124Z,45.59
2023-06-20T16:03:58.403Z,45.06
2023-06-20T16:06:28.636Z,45.06
2023-06-20T16:08:57.708Z,45.66
2023-06-20T16:11:30.294Z,46.46
2023-06-20T16:13:59.747Z,46.90
2023-06-20T16:16:29.481Z,46.98
2023-06-20T16:18:58.175Z,46.96
2023-06-20T16:21:32.099Z,47.22
2023-06-20T16:24:01.173Z,47.69
2023-06-20T16:26:30.183Z,47.89
2023-06-20T16:29:00.714Z,47.99
2023-06-20T16:31:29.707Z,47.95
2023-06-20T16:33:58.604Z,48.11
2023-06-20T16:36:27.580Z,48.46
2023-06-20T16:38:56.685Z,48.79
2023-06-20T16:41:26.623Z,48.77
2023-06-20T16:43:55.638Z,48.60
2023-06-20T16:46:24.725Z,48.38
2023-06-20T16:48:53.670Z,47.77
2023-06-20T16:51:22.885Z,47.63
2023-06-20T16:53:52.400Z,47.05
2023-06-20T16:56:24.003Z,46.95
2023-06-20T16:58:54.947Z,47.17
2023-06-20T17:01:24.688Z,48.17
2023-06-20T17:03:53.797Z,48.82
2023-06-20T17:06:22.622Z,49.34
2023-06-20T17:08:51.565Z,50.48
2023-06-20T17:11:23.350Z,51.68
2023-06-20T17:13:54.367Z,52.24
2023-06-20T17:16:23.599Z,52.56
2023-06-20T17:18:53.272Z,51.81
2023-06-20T17:21:23.874Z,51.58
2023-06-20T17:23:53.898Z,51.94
2023-06-20T17:26:22.638Z,52.01
2023-06-20T17:28:51.498Z,52.33
2023-06-20T17:31:21.144Z,52.27
2023-06-20T17:33:50.298Z,52.42
2023-06-20T17:36:19.504Z,51.85
2023-06-20T17:38:49.101Z,51.77
2023-06-20T17:41:19.523Z,51.84
2023-06-20T17:43:48.744Z,51.34
2023-06-20T17:46:18.277Z,50.78
2023-06-20T17:48:47.350Z,49.88
2023-06-20T17:51:16.330Z,49.25
2023-06-20T17:53:45.961Z,49.33
2023-06-20T17:56:15.833Z,50.30
2023-06-20T17:58:44.838Z,49.97
2023-06-20T18:01:14.123Z,49.64
2023-06-20T18:03:43.487Z,49.77
2023-06-20T18:06:13.036Z,50.62
2023-06-20T18:08:42.651Z,50.81
2023-06-20T18:11:13.011Z,51.14
2023-06-20T18:13:41.746Z,51.30
2023-06-20T18:16:15.214Z,51.40
2023-06-20T18:18:45.842Z,51.45
2023-06-20T18:21:15.105Z,51.51
2023-06-20T18:23:44.399Z,51.39
2023-06-20T18:26:16.746Z,51.63
2023-06-20T18:28:45.804Z,51.67
2023-06-20T18:31:15.079Z,51.71
2023-06-20T18:33:44.245Z,51.79
2023-06-20T18:36:13.511Z,51.87
2023-06-20T18:38:44.180Z,52.22
2023-06-20T18:41:13.247Z,52.27
2023-06-20T18:43:43.655Z,52.03
2023-06-20T18:46:12.899Z,52.23
2023-06-20T18:48:42.610Z,51.59
2023-06-20T18:51:13.226Z,51.55
2023-06-20T18:53:42.577Z,51.42
2023-06-20T18:56:14.856Z,51.80
2023-06-20T18:58:45.902Z,52.25
2023-06-20T19:01:17.749Z,52.56
2023-06-20T19:03:48.176Z,52.78
2023-06-20T19:06:18.374Z,52.85
2023-06-20T19:08:48.080Z,52.67
2023-06-20T19:11:20.506Z,52.51
2023-06-20T19:13:51.071Z,52.55
2023-06-20T19:16:22.823Z,52.63
2023-06-20T19:18:52.148Z,52.95
2023-06-20T19:21:22.260Z,53.04
2023-06-20T19:23:53.594Z,53.22
2023-06-20T19:26:22.809Z,53.38
2023-06-20T19:28:52.000Z,53.47
2023-06-20T19:31:22.180Z,53.77
2023-06-20T19:33:51.413Z,53.87
2023-06-20T19:36:20.718Z,54.22
2023-06-20T19:38:50.154Z,54.34
2023-06-20T19:41:19.848Z,54.50
2023-06-20T19:43:49.122Z,54.84
2023-06-20T19:46:18.962Z,55.00
2023-06-20T19:48:50.289Z,55.17
2023-06-20T19:51:20.331Z,55.34
2023-06-20T19:53:51.618Z,55.72
2023-06-20T19:56:20.773Z,55.77
2023-06-20T19:58:52.829Z,55.74
2023-06-20T20:01:23.141Z,55.80
2023-06-20T20:03:52.831Z,56.00
2023-06-20T20:06:23.611Z,56.21
2023-06-20T20:08:52.494Z,56.44
2023-06-20T20:11:22.467Z,56.37
2023-06-20T20:13:52.110Z,56.68
2023-06-20T20:16:21.861Z,56.69
2023-06-20T20:18:51.450Z,56.97
2023-06-20T20:21:20.551Z,57.25
2023-06-20T20:23:50.037Z,57.36
2023-06-20T20:26:20.368Z,57.59
2023-06-20T20:31:24.180Z,58.39
2023-06-20T20:33:54.098Z,58.63
2023-06-20T20:36:24.309Z,59.02
2023-06-20T20:38:53.799Z,59.36
2023-06-20T20:41:22.915Z,59.45
2023-06-20T20:43:52.228Z,59.56
2023-06-20T20:46:22.652Z,59.95
2023-06-20T20:48:53.055Z,60.02
2023-06-20T20:51:22.476Z,60.37
2023-06-20T20:53:51.846Z,60.28
2023-06-20T20:56:20.844Z,60.61
2023-06-20T20:58:50.038Z,60.74
2023-06-20T21:01:19.031Z,60.94
2023-06-20T21:03:48.384Z,61.08
2023-06-20T21:06:17.845Z,61.03
2023-06-20T21:08:46.747Z,61.35
2023-06-20T21:11:16.865Z,61.80
2023-06-20T21:13:47.825Z,62.14
2023-06-20T21:16:17.000Z,62.37
2023-06-20T21:18:46.325Z,62.42
2023-06-20T21:21:15.807Z,62.96
2023-06-20T21:23:44.708Z,63.10
2023-06-20T21:26:16.651Z,63.28
2023-06-20T21:28:45.454Z,63.46
2023-06-20T21:31:14.722Z,63.60
2023-06-20T21:33:44.357Z,63.72
2023-06-20T21:36:13.359Z,63.67
2023-06-20T21:38:43.783Z,64.24
2023-06-20T21:41:14.710Z,64.52
2023-06-20T21:43:44.640Z,64.65
2023-06-20T21:46:13.850Z,65.16
2023-06-20T21:48:43.241Z,65.34
2023-06-20T21:51:12.341Z,65.50
2023-06-20T21:53:41.685Z,66.00
2023-06-20T21:56:10.519Z,66.33
2023-06-20T21:58:39.932Z,66.21
2023-06-20T22:01:13.274Z,66.95
2023-06-20T22:03:42.300Z,67.07
2023-06-20T22:06:12.653Z,67.15
2023-06-20T22:08:42.864Z,67.59
2023-06-20T22:11:11.658Z,67.66
2023-06-20T22:13:41.043Z,68.11
2023-06-20T22:16:09.628Z,68.17
2023-06-20T22:18:38.610Z,68.48
2023-06-20T22:21:07.518Z,68.80
2023-06-20T22:23:36.613Z,69.10
2023-06-20T22:26:05.487Z,69.20
2023-06-20T22:28:34.506Z,69.37
2023-06-20T22:31:03.808Z,69.77
2023-06-20T22:33:32.899Z,70.05
2023-06-20T22:36:01.998Z,70.27
2023-06-20T22:38:32.423Z,70.40
2023-06-20T22:41:01.391Z,70.59
2023-06-20T22:43:32.559Z,70.68
2023-06-20T22:46:01.478Z,70.94
2023-06-20T22:48:31.355Z,71.12
2023-06-20T22:51:00.330Z,71.41
2023-06-20T22:53:29.231Z,71.93
2023-06-20T22:55:58.426Z,72.34
2023-06-20T22:58:27.111Z,72.71
2023-06-20T23:00:56.087Z,73.06
2023-06-20T23:03:25.989Z,73.34
2023-06-20T23:05:55.429Z,73.61
2023-06-20T23:08:24.311Z,73.96
2023-06-20T23:10:53.419Z,74.27
2023-06-20T23:13:22.194Z,74.36
2023-06-20T23:15:52.287Z,74.50
2023-06-20T23:18:24.203Z,74.76
2023-06-20T23:20:54.096Z,74.71
2023-06-20T23:23:23.077Z,74.87
2023-06-20T23:25:51.972Z,74.89
2023-06-20T23:28:23.417Z,74.99
2023-06-20T23:30:52.432Z,75.38
2023-06-20T23:33:21.842Z,75.22
2023-06-20T23:35:51.438Z,75.42
2023-06-20T23:38:20.219Z,75.50
2023-06-20T23:40:49.556Z,75.57
2023-06-20T23:43:18.777Z,75.97
2023-06-20T23:45:49.032Z,76.57
2023-06-20T23:48:18.146Z,77.14
2023-06-20T23:50:47.156Z,77.85
2023-06-20T23:53:16.309Z,78.20
2023-06-20T23:55:45.841Z,78.56
2023-06-20T23:58:14.606Z,79.02
